createdAt,value
2017-11-10T00:01:22.607Z,6.93
2017-11-10T00:03:50.128Z,7.30
2017-11-10T00:06:17.636Z,7.70
2017-11-10T00:08:45.204Z,7.47
2017-11-10T00:11:12.707Z,6.33
2017-11-10T00:13:40.227Z,6.97
2017-11-10T00:16:08.130Z,6.93
2017-11-10T00:18:35.648Z,6.40
2017-11-10T00:21:03.175Z,6.53
2017-11-10T00:23:32.074Z,6.83
2017-11-10T00:25:59.990Z,7.20
2017-11-10T00:28:28.263Z,6.80
2017-11-10T00:30:56.588Z,6.47
2017-11-10T00:33:25.631Z,7.30
2017-11-10T00:35:53.559Z,6.40
2017-11-10T00:38:21.479Z,6.90
2017-11-10T00:40:49.009Z,6.70
2017-11-10T00:43:16.528Z,7.30
2017-11-10T00:45:44.091Z,6.70
2017-11-10T00:48:12.391Z,7.00
2017-11-10T00:50:39.915Z,6.97
2017-11-10T00:53:08.964Z,7.20
2017-11-10T00:55:36.628Z,7.63
2017-11-10T00:58:04.154Z,6.87
2017-11-10T01:00:33.227Z,7.13
2017-11-10T01:03:00.755Z,7.30
2017-11-10T01:05:29.050Z,6.93
2017-11-10T01:07:56.985Z,7.10
2017-11-10T01:10:25.289Z,6.62
2017-11-10T01:12:53.194Z,7.33
2017-11-10T01:15:21.480Z,7.50
2017-11-10T01:17:49.402Z,6.77
2017-11-10T01:20:16.907Z,6.30
2017-11-10T01:22:44.481Z,6.78
2017-11-10T01:25:11.993Z,7.10
2017-11-10T01:27:39.523Z,6.87
2017-11-10T01:30:07.839Z,6.50
2017-11-10T01:32:36.140Z,7.18
2017-11-10T01:35:05.281Z,6.27
2017-11-10T01:37:32.852Z,7.00
2017-11-10T01:40:00.395Z,7.30
2017-11-10T01:42:27.946Z,6.87
2017-11-10T01:44:55.492Z,6.47
2017-11-10T01:47:23.890Z,6.80
2017-11-10T01:49:53.736Z,7.00
2017-11-10T01:52:21.280Z,6.60
2017-11-10T01:54:48.823Z,6.93
2017-11-10T01:57:16.372Z,6.60
2017-11-10T01:59:43.947Z,6.80
2017-11-10T02:02:11.463Z,6.43
2017-11-10T02:04:39.764Z,6.80
2017-11-10T02:07:07.315Z,6.73
2017-11-10T02:09:34.839Z,6.67
2017-11-10T02:12:02.366Z,6.50
2017-11-10T02:14:29.912Z,6.43
2017-11-10T02:16:57.882Z,7.00
2017-11-10T02:19:25.388Z,7.03
2017-11-10T02:21:52.944Z,7.00
2017-11-10T02:24:20.500Z,6.47
2017-11-10T02:26:48.024Z,6.93
2017-11-10T02:29:15.590Z,6.40
2017-11-10T02:31:43.091Z,6.90
2017-11-10T02:34:14.043Z,6.20
2017-11-10T02:36:42.727Z,6.70
2017-11-10T02:39:11.046Z,6.93
2017-11-10T02:41:38.555Z,6.90
2017-11-10T02:44:06.163Z,6.90
2017-11-10T02:46:33.686Z,7.07
2017-11-10T02:49:01.611Z,6.63
2017-11-10T02:51:29.939Z,7.20
2017-11-10T02:53:58.610Z,6.82
2017-11-10T02:56:26.908Z,6.60
2017-11-10T02:58:54.432Z,6.03
2017-11-10T03:01:22.699Z,6.10
2017-11-10T03:03:50.205Z,6.30
2017-11-10T03:06:17.767Z,6.20
2017-11-10T03:08:45.271Z,6.70
2017-11-10T03:11:12.780Z,6.57
2017-11-10T03:13:40.323Z,6.73
2017-11-10T03:16:08.615Z,6.77
2017-11-10T03:18:36.380Z,6.07
2017-11-10T03:21:03.923Z,6.50
2017-11-10T03:23:31.819Z,6.43
2017-11-10T03:26:00.668Z,6.10
2017-11-10T03:28:28.978Z,6.97
2017-11-10T03:30:56.486Z,6.10
2017-11-10T03:33:24.382Z,5.93
2017-11-10T03:35:52.703Z,6.50
2017-11-10T03:38:20.235Z,5.90
2017-11-10T03:40:47.744Z,6.63
2017-11-10T03:43:15.291Z,6.30
2017-11-10T03:45:42.831Z,6.77
2017-11-10T03:48:10.375Z,5.90
2017-11-10T03:50:39.454Z,7.10
2017-11-10T03:53:07.731Z,6.37
2017-11-10T03:55:36.007Z,5.70
2017-11-10T03:58:04.675Z,6.77
2017-11-10T04:00:33.319Z,6.70
2017-11-10T04:03:00.843Z,6.43
2017-11-10T04:05:28.777Z,6.00
2017-11-10T04:07:56.275Z,6.80
2017-11-10T04:10:23.815Z,7.28
2017-11-10T04:12:51.354Z,6.33
2017-11-10T04:15:18.884Z,6.57
2017-11-10T04:17:46.387Z,6.50
2017-11-10T04:20:13.947Z,6.47
2017-11-10T04:22:41.462Z,6.00
2017-11-10T04:25:10.096Z,6.10
2017-11-10T04:27:38.407Z,6.20
2017-11-10T04:30:05.985Z,6.20
2017-11-10T04:32:33.491Z,6.20
2017-11-10T04:35:01.407Z,6.87
2017-11-10T04:37:28.924Z,6.73
2017-11-10T04:39:56.447Z,6.23
2017-11-10T04:42:23.989Z,6.53
2017-11-10T04:44:51.511Z,6.90
2017-11-10T04:47:19.820Z,6.00
2017-11-10T04:49:47.386Z,6.10
2017-11-10T04:52:14.907Z,6.20
2017-11-10T04:54:43.914Z,6.17
2017-11-10T04:57:11.463Z,5.77
2017-11-10T04:59:38.995Z,6.50
2017-11-10T05:02:06.499Z,6.63
2017-11-10T05:04:34.432Z,6.00
2017-11-10T05:07:02.351Z,5.80
2017-11-10T05:09:30.268Z,6.20
2017-11-10T05:11:59.188Z,7.80
2017-11-10T05:14:27.460Z,6.77
2017-11-10T05:16:55.756Z,6.43
2017-11-10T05:19:30.386Z,6.90
2017-11-10T05:21:58.775Z,6.27
2017-11-10T05:24:26.324Z,6.30
2017-11-10T05:26:54.256Z,6.90
2017-11-10T05:29:22.538Z,6.60
2017-11-10T05:31:50.812Z,6.70
2017-11-10T05:34:19.128Z,7.03
2017-11-10T05:36:46.663Z,6.33
2017-11-10T05:39:14.588Z,6.57
2017-11-10T05:41:43.263Z,6.27
2017-11-10T05:44:10.812Z,6.80
2017-11-10T05:46:38.707Z,6.50
2017-11-10T05:49:07.020Z,6.13
2017-11-10T05:51:35.042Z,6.63
2017-11-10T05:54:02.603Z,6.47
2017-11-10T05:56:30.927Z,6.80
2017-11-10T05:58:59.800Z,6.30
2017-11-10T06:01:28.072Z,7.40
2017-11-10T06:03:55.612Z,6.50
2017-11-10T06:06:23.139Z,6.03
2017-11-10T06:08:50.687Z,6.30
2017-11-10T06:11:18.644Z,6.23
2017-11-10T06:13:46.922Z,6.70
2017-11-10T06:16:15.214Z,6.40
2017-11-10T06:18:44.261Z,6.80
2017-11-10T06:21:11.840Z,6.70
2017-11-10T06:23:40.261Z,7.20
2017-11-10T06:26:08.596Z,6.50
2017-11-10T06:28:37.243Z,6.90
2017-11-10T06:31:04.752Z,6.53
2017-11-10T06:33:33.075Z,6.30
2017-11-10T06:36:01.524Z,5.90
2017-11-10T06:38:30.563Z,6.40
2017-11-10T06:40:58.903Z,6.53
2017-11-10T06:43:26.427Z,6.03
2017-11-10T06:45:53.947Z,6.33
2017-11-10T06:48:22.636Z,5.90
2017-11-10T06:50:50.565Z,6.77
2017-11-10T06:53:19.606Z,6.90
2017-11-10T06:55:47.556Z,6.80
2017-11-10T06:58:15.836Z,7.27
2017-11-10T07:00:43.351Z,7.53
2017-11-10T07:03:12.079Z,6.70
2017-11-10T07:05:39.983Z,6.43
2017-11-10T07:08:09.028Z,6.53
2017-11-10T07:10:36.583Z,5.80
2017-11-10T07:13:04.483Z,7.00
2017-11-10T07:15:32.752Z,6.00
2017-11-10T07:18:00.414Z,6.00
2017-11-10T07:20:29.276Z,6.60
2017-11-10T07:22:58.133Z,6.20
2017-11-10T07:25:26.063Z,6.40
2017-11-10T07:27:53.595Z,6.50
2017-11-10T07:30:21.138Z,6.50
2017-11-10T07:32:49.471Z,6.50
2017-11-10T07:35:17.483Z,6.00
2017-11-10T07:37:44.983Z,6.23
2017-11-10T07:40:13.312Z,6.57
2017-11-10T07:42:40.846Z,6.73
2017-11-10T07:45:08.371Z,6.70
2017-11-10T07:47:36.699Z,6.30
2017-11-10T07:50:04.627Z,6.50
2017-11-10T07:52:33.636Z,6.97
2017-11-10T07:55:01.211Z,7.03
2017-11-10T07:57:28.757Z,6.53
2017-11-10T07:59:56.294Z,7.30
2017-11-10T08:02:24.591Z,6.03
2017-11-10T08:04:52.880Z,6.87
2017-11-10T08:07:20.415Z,6.77
2017-11-10T08:09:48.740Z,6.50
2017-11-10T08:12:16.243Z,6.87
2017-11-10T08:14:43.760Z,6.17
2017-11-10T08:17:11.695Z,6.00
2017-11-10T08:19:39.602Z,6.50
2017-11-10T08:22:07.509Z,7.13
2017-11-10T08:24:35.077Z,7.00
2017-11-10T08:27:02.611Z,6.80
2017-11-10T08:29:30.201Z,6.67
2017-11-10T08:31:58.523Z,6.70
2017-11-10T08:34:26.140Z,6.87
2017-11-10T08:36:53.676Z,7.00
2017-11-10T08:39:22.432Z,9.67
2017-11-10T08:41:49.951Z,5.83
2017-11-10T08:44:17.515Z,7.13
2017-11-10T08:46:45.465Z,7.73
2017-11-10T08:49:14.347Z,7.50
2017-11-10T08:51:42.251Z,7.30
2017-11-10T08:54:09.804Z,18.27
2017-11-10T08:56:37.704Z,21.53
2017-11-10T08:59:05.213Z,24.73
2017-11-10T09:01:32.756Z,15.63
2017-11-10T09:04:00.271Z,12.37
2017-11-10T09:06:27.807Z,19.47
2017-11-10T09:08:56.774Z,15.05
2017-11-10T09:11:24.292Z,16.03
2017-11-10T09:13:51.825Z,21.17
2017-11-10T09:16:19.420Z,23.77
2017-11-10T09:18:47.749Z,21.80
2017-11-10T09:21:15.307Z,21.37
2017-11-10T09:23:44.363Z,16.57
2017-11-10T09:26:12.672Z,19.73
2017-11-10T09:28:56.081Z,19.83
2017-11-10T09:31:25.828Z,18.60
2017-11-10T09:47:31.752Z,13.62
2017-11-10T09:50:04.756Z,14.13
2017-11-10T09:52:38.136Z,13.62
2017-11-10T09:55:23.424Z,13.80
2017-11-10T09:57:56.591Z,14.97
2017-11-10T10:00:30.596Z,15.77
2017-11-10T10:03:11.407Z,15.50
2017-11-10T10:05:45.362Z,17.00
2017-11-10T10:08:19.901Z,15.60
2017-11-10T10:10:53.892Z,16.40
2017-11-10T10:26:44.007Z,16.17
2017-11-10T10:29:12.443Z,16.80
2017-11-10T10:31:39.961Z,16.63
2017-11-10T10:34:08.963Z,17.00
2017-11-10T10:36:36.517Z,17.07
2017-11-10T10:39:04.073Z,15.77
2017-11-10T10:41:32.059Z,16.17
2017-11-10T10:43:59.577Z,17.20
2017-11-10T10:46:27.207Z,14.77
2017-11-10T10:48:56.253Z,16.37
2017-11-10T10:51:23.804Z,15.23
2017-11-10T10:53:51.410Z,15.77
2017-11-10T10:56:20.582Z,13.60
2017-11-10T10:58:48.089Z,15.03
2017-11-10T11:01:17.071Z,14.20
2017-11-10T11:03:45.952Z,15.60
2017-11-10T11:06:14.829Z,14.53
2017-11-10T11:08:42.387Z,14.97
2017-11-10T11:11:11.073Z,14.98
2017-11-10T11:13:38.621Z,14.20
2017-11-10T11:16:06.215Z,14.52
2017-11-10T11:18:33.767Z,14.23
2017-11-10T11:21:01.279Z,14.10
2017-11-10T11:23:30.228Z,15.00
2017-11-10T11:25:57.761Z,14.27
2017-11-10T11:28:26.131Z,13.38
2017-11-10T11:30:53.707Z,13.90
2017-11-10T11:33:21.244Z,13.68
2017-11-10T11:35:48.747Z,12.50
2017-11-10T11:38:16.780Z,14.57
2017-11-10T11:40:44.700Z,12.80
2017-11-10T11:43:12.992Z,12.03
2017-11-10T11:45:40.952Z,13.90
2017-11-10T11:48:09.600Z,13.00
2017-11-10T11:50:37.115Z,13.17
2017-11-10T11:53:04.679Z,18.33
2017-11-10T11:55:32.201Z,17.00
2017-11-10T11:57:59.819Z,21.13
2017-11-10T12:00:27.383Z,21.80
2017-11-10T12:02:56.060Z,21.07
2017-11-10T12:05:24.007Z,20.70
2017-11-10T12:07:51.560Z,23.67
2017-11-10T12:10:19.496Z,25.05
2017-11-10T12:12:47.018Z,22.77
2017-11-10T12:15:15.816Z,22.00
2017-11-10T12:17:43.335Z,18.70
2017-11-10T12:20:11.247Z,18.97
2017-11-10T12:22:38.820Z,19.70
2017-11-10T12:25:06.362Z,21.70
2017-11-10T12:27:33.877Z,23.60
2017-11-10T12:30:02.188Z,19.37
2017-11-10T12:32:31.100Z,18.73
2017-11-10T12:34:59.019Z,21.00
2017-11-10T12:37:28.140Z,20.57
2017-11-10T12:39:56.462Z,19.50
2017-11-10T12:42:23.990Z,18.70
2017-11-10T12:44:51.563Z,18.90
2017-11-10T12:47:19.492Z,18.43
2017-11-10T12:49:54.646Z,17.27
2017-11-10T12:52:30.194Z,18.67
2017-11-10T12:54:58.706Z,18.17
2017-11-10T12:57:26.219Z,18.47
2017-11-10T12:59:53.739Z,18.25
2017-11-10T13:02:21.310Z,17.80
2017-11-10T13:04:48.827Z,18.60
2017-11-10T13:07:16.397Z,18.45
2017-11-10T13:09:44.729Z,16.00
2017-11-10T13:12:13.037Z,17.27
2017-11-10T13:14:40.573Z,15.77
2017-11-10T13:17:08.138Z,18.27
2017-11-10T13:19:35.681Z,16.00
2017-11-10T13:22:04.381Z,17.00
2017-11-10T13:24:32.745Z,17.47
2017-11-10T13:27:01.062Z,16.83
2017-11-10T13:29:28.595Z,17.13
2017-11-10T13:31:56.164Z,16.67
2017-11-10T13:34:23.679Z,16.63
2017-11-10T13:36:51.273Z,16.40
2017-11-10T13:39:19.294Z,15.57
2017-11-10T13:41:47.266Z,16.50
2017-11-10T13:44:15.209Z,15.70
2017-11-10T13:46:42.801Z,16.03
2017-11-10T13:49:11.151Z,16.50
2017-11-10T13:51:38.752Z,15.90
2017-11-10T13:54:06.763Z,16.63
2017-11-10T13:56:34.371Z,15.27
2017-11-10T13:59:02.346Z,15.23
2017-11-10T14:01:29.936Z,15.48
2017-11-10T14:03:58.826Z,15.13
2017-11-10T14:06:27.961Z,14.37
2017-11-10T14:08:55.550Z,15.93
2017-11-10T14:11:23.489Z,14.73
2017-11-10T14:13:51.050Z,14.52
2017-11-10T14:16:18.712Z,13.40
2017-11-10T14:18:46.892Z,14.17
2017-11-10T14:21:15.472Z,16.75
2017-11-10T14:23:43.111Z,19.30
2017-11-10T14:26:10.689Z,20.30
2017-11-10T14:28:39.792Z,22.70
2017-11-10T14:31:08.736Z,21.30
2017-11-10T14:33:37.639Z,23.40
2017-11-10T14:36:05.160Z,23.73
2017-11-10T14:38:32.741Z,24.50
2017-11-10T14:41:01.170Z,24.93
2017-11-10T14:43:28.708Z,25.02
2017-11-10T14:45:56.335Z,22.90
2017-11-10T14:48:28.638Z,25.73
2017-11-10T14:50:56.634Z,26.05
2017-11-10T14:53:25.313Z,24.40
2017-11-10T14:55:52.872Z,25.83
2017-11-10T14:58:22.242Z,27.73
2017-11-10T15:00:50.552Z,25.47
2017-11-10T15:03:18.089Z,25.10
2017-11-10T15:05:46.080Z,24.87
2017-11-10T15:08:14.415Z,24.73
2017-11-10T15:10:42.447Z,26.00
2017-11-10T15:13:11.486Z,25.63
2017-11-10T15:15:39.065Z,24.92
2017-11-10T15:18:07.431Z,24.83
2017-11-10T15:20:35.781Z,25.50
2017-11-10T15:23:03.340Z,26.00
2017-11-10T15:25:30.888Z,24.87
2017-11-10T15:27:58.489Z,24.50
2017-11-10T15:30:29.372Z,24.00
2017-11-10T15:32:57.032Z,22.43
2017-11-10T15:35:25.379Z,23.42
2017-11-10T15:37:53.711Z,23.93
2017-11-10T15:40:23.048Z,24.20
2017-11-10T15:42:51.085Z,24.93
2017-11-10T15:45:18.608Z,24.40
2017-11-10T15:47:47.701Z,22.30
2017-11-10T15:50:17.267Z,23.20
2017-11-10T15:52:44.817Z,23.23
2017-11-10T15:55:12.503Z,24.07
2017-11-10T15:57:40.095Z,21.45
2017-11-10T16:00:07.791Z,22.73
2017-11-10T16:02:35.365Z,21.97
2017-11-10T16:05:02.927Z,22.03
2017-11-10T16:07:30.448Z,21.50
2017-11-10T16:09:58.012Z,22.90
2017-11-10T16:12:25.672Z,21.90
2017-11-10T16:14:54.568Z,21.47
2017-11-10T16:17:22.542Z,21.92
2017-11-10T16:19:50.191Z,23.00
2017-11-10T16:22:17.847Z,21.97
2017-11-10T16:24:46.556Z,21.43
2017-11-10T16:27:14.111Z,20.47
2017-11-10T16:29:41.646Z,19.73
2017-11-10T16:32:09.194Z,22.03
2017-11-10T16:34:36.789Z,19.83
2017-11-10T16:37:05.698Z,20.00
2017-11-10T16:39:33.646Z,20.53
2017-11-10T16:42:02.344Z,20.50
2017-11-10T16:44:30.284Z,18.60
2017-11-10T16:46:57.852Z,20.00
2017-11-10T16:49:25.420Z,20.83
2017-11-10T16:51:54.096Z,18.77
2017-11-10T16:54:21.627Z,19.97
2017-11-10T16:56:50.128Z,20.13
2017-11-10T16:59:17.721Z,19.07
2017-11-10T17:01:45.779Z,19.50
2017-11-10T17:04:13.368Z,19.07
2017-11-10T17:06:41.151Z,18.90
2017-11-10T17:09:09.804Z,19.67
2017-11-10T17:11:37.392Z,18.87
2017-11-10T17:14:05.332Z,19.67
2017-11-10T17:16:32.936Z,19.37
2017-11-10T17:19:01.289Z,18.17
2017-11-10T17:21:36.224Z,18.20
2017-11-10T17:24:11.524Z,18.33
2017-11-10T17:26:40.275Z,19.33
2017-11-10T17:29:09.034Z,18.87
2017-11-10T17:31:38.141Z,17.47
2017-11-10T17:34:06.097Z,17.77
2017-11-10T17:36:33.745Z,16.70
2017-11-10T17:39:01.323Z,17.27
2017-11-10T17:41:29.654Z,17.57
2017-11-10T17:43:57.240Z,18.07
2017-11-10T17:46:24.805Z,17.17
2017-11-10T17:48:53.516Z,17.50
2017-11-10T17:51:21.155Z,17.03
2017-11-10T17:53:48.765Z,15.48
2017-11-10T17:56:17.108Z,17.03
2017-11-10T17:58:44.779Z,16.70
2017-11-10T18:01:13.596Z,17.00
2017-11-10T18:03:41.925Z,17.50
2017-11-10T18:06:09.537Z,18.03
2017-11-10T18:08:37.540Z,17.80
2017-11-10T18:11:05.085Z,16.53
2017-11-10T18:13:33.113Z,15.93
2017-11-10T18:16:00.748Z,17.03
2017-11-10T18:18:28.325Z,16.70
2017-11-10T18:20:56.397Z,16.85
2017-11-10T18:23:25.127Z,17.90
2017-11-10T18:25:53.078Z,16.93
2017-11-10T18:28:21.432Z,16.48
2017-11-10T18:30:49.780Z,17.37
2017-11-10T18:33:17.793Z,14.82
2017-11-10T18:35:45.372Z,16.40
2017-11-10T18:38:13.732Z,16.70
2017-11-10T18:40:42.031Z,15.80
2017-11-10T18:43:10.440Z,15.02
2017-11-10T18:45:39.252Z,16.75
2017-11-10T18:48:08.148Z,16.20
2017-11-10T18:50:35.751Z,16.67
2017-11-10T18:53:05.201Z,16.73
2017-11-10T18:55:39.136Z,16.73
2017-11-10T18:58:06.743Z,16.40
2017-11-10T19:00:34.312Z,16.30
2017-11-10T19:03:03.092Z,15.45
2017-11-10T19:05:31.472Z,15.70
2017-11-10T19:07:59.434Z,15.77
2017-11-10T19:10:27.015Z,17.40
2017-11-10T19:12:55.064Z,14.93
2017-11-10T19:15:24.404Z,15.57
2017-11-10T19:17:53.680Z,16.37
2017-11-10T19:20:21.367Z,16.00
2017-11-10T19:22:50.086Z,14.60
2017-11-10T19:25:17.635Z,14.60
2017-11-10T19:27:45.183Z,16.40
2017-11-10T19:30:12.752Z,15.30
2017-11-10T19:32:41.093Z,16.17
2017-11-10T19:35:09.033Z,15.60
2017-11-10T19:37:37.349Z,14.60
2017-11-10T19:40:07.589Z,15.70
2017-11-10T19:42:35.203Z,15.97
2017-11-10T19:45:03.524Z,16.30
2017-11-10T19:47:31.115Z,15.90
2017-11-10T19:49:59.556Z,15.77
2017-11-10T19:52:28.472Z,14.60
2017-11-10T19:54:57.056Z,16.03
2017-11-10T19:57:25.021Z,14.60
2017-11-10T19:59:53.505Z,13.83
2017-11-10T20:02:21.482Z,14.67
2017-11-10T20:04:49.713Z,15.50
2017-11-10T20:07:18.477Z,13.27
2017-11-10T20:09:46.870Z,16.57
2017-11-10T20:12:15.805Z,15.50
2017-11-10T20:14:43.406Z,15.40
2017-11-10T20:20:06.014Z,15.03
2017-11-10T20:22:34.609Z,14.00
2017-11-10T20:25:03.595Z,14.20
2017-11-10T20:30:06.088Z,14.93
2017-11-10T20:32:37.150Z,16.48
2017-11-10T20:35:06.353Z,17.40
2017-11-10T20:37:34.005Z,18.47
2017-11-10T20:40:03.097Z,21.10
2017-11-10T20:42:31.768Z,24.37
2017-11-10T20:45:00.105Z,23.80
2017-11-10T20:47:28.420Z,25.17
2017-11-10T20:49:56.035Z,25.27
2017-11-10T20:52:24.362Z,26.10
2017-11-10T20:54:53.358Z,25.37
2017-11-10T20:57:21.738Z,24.17
2017-11-10T20:59:50.381Z,25.33
2017-11-10T21:02:20.083Z,25.20
2017-11-10T21:04:49.232Z,24.40
2017-11-10T21:07:17.288Z,23.17
2017-11-10T21:09:46.077Z,24.27
2017-11-10T21:12:14.073Z,22.90
2017-11-10T21:14:42.062Z,23.07
2017-11-10T21:17:10.415Z,22.00
2017-11-10T21:19:40.324Z,22.83
2017-11-10T21:22:10.343Z,22.73
2017-11-10T21:24:38.403Z,21.50
2017-11-10T21:27:06.281Z,22.67
2017-11-10T21:29:34.531Z,25.00
2017-11-10T21:32:02.322Z,25.00
2017-11-10T21:34:29.954Z,23.57
2017-11-10T21:36:57.585Z,26.10
2017-11-10T21:39:26.233Z,23.70
2017-11-10T21:41:58.024Z,23.90
2017-11-10T21:44:26.368Z,23.47
2017-11-10T21:46:55.465Z,25.47
2017-11-10T21:49:24.940Z,24.90
2017-11-10T21:51:52.532Z,24.37
2017-11-10T21:54:20.157Z,23.27
2017-11-10T21:56:50.431Z,23.20
2017-11-10T21:59:19.626Z,23.23
2017-11-10T22:01:48.096Z,23.20
2017-11-10T22:04:15.696Z,23.37
2017-11-10T22:06:44.584Z,22.13
2017-11-10T22:09:14.463Z,23.23
2017-11-10T22:11:42.944Z,23.60
2017-11-10T22:14:11.527Z,22.80
2017-11-10T22:16:46.240Z,24.00
2017-11-10T22:19:13.780Z,22.70
2017-11-10T22:21:42.093Z,22.83
2017-11-10T22:24:10.163Z,21.57
2017-11-10T22:26:37.717Z,21.77
2017-11-10T22:29:05.268Z,21.70
2017-11-10T22:31:32.843Z,21.65
2017-11-10T22:34:01.225Z,21.40
2017-11-10T22:36:29.704Z,21.33
2017-11-10T22:38:59.412Z,21.20
2017-11-10T22:41:28.221Z,21.50
2017-11-10T22:43:56.159Z,21.83
2017-11-10T22:46:24.553Z,20.87
2017-11-10T22:48:52.877Z,20.20
2017-11-10T22:51:20.403Z,20.50
2017-11-10T22:53:47.959Z,19.10
2017-11-10T22:56:15.527Z,20.10
2017-11-10T22:58:43.144Z,19.27
2017-11-10T23:01:10.733Z,19.53
2017-11-10T23:03:38.297Z,20.40
2017-11-10T23:06:06.223Z,20.70
2017-11-10T23:08:34.319Z,20.97
2017-11-10T23:11:03.306Z,20.20
2017-11-10T23:13:30.836Z,18.40
2017-11-10T23:15:58.441Z,19.20
2017-11-10T23:18:26.083Z,18.83
2017-11-10T23:20:54.828Z,19.27
2017-11-10T23:23:22.538Z,18.10
2017-11-10T23:25:50.840Z,19.70
2017-11-10T23:28:19.179Z,19.57
2017-11-10T23:30:47.120Z,18.87
2017-11-10T23:33:14.695Z,19.23
2017-11-10T23:35:42.225Z,18.30
2017-11-10T23:38:10.544Z,19.60
2017-11-10T23:40:39.567Z,18.63
2017-11-10T23:43:07.851Z,18.57
2017-11-10T23:45:35.411Z,18.27
2017-11-10T23:48:04.055Z,18.10
2017-11-10T23:50:31.987Z,18.90
2017-11-10T23:52:59.520Z,19.40
2017-11-10T23:55:27.031Z,18.45
2017-11-10T23:57:55.337Z,17.02
